sensor_id;sensor_type;location;lat;lon;timestamp;P1;durP1;ratioP1;P2;durP2;ratioP2
14141;SDS011;7151;52.246;4.820;2022-12-07T00:01:16;1.47;;;0.80;;
14141;SDS011;7151;52.246;4.820;2022-12-07T00:03:44;1.10;;;0.60;;
14141;SDS011;7151;52.246;4.820;2022-12-07T00:06:11;2.07;;;0.90;;
14141;SDS011;7151;52.246;4.820;2022-12-07T00:08:38;1.20;;;0.73;;
14141;SDS011;7151;52.246;4.820;2022-12-07T00:11:05;2.07;;;0.90;;
14141;SDS011;7151;52.246;4.820;2022-12-07T00:13:32;2.00;;;1.23;;
14141;SDS011;7151;52.246;4.820;2022-12-07T00:16:02;1.90;;;0.93;;
14141;SDS011;7151;52.246;4.820;2022-12-07T00:18:30;1.90;;;1.10;;
14141;SDS011;7151;52.246;4.820;2022-12-07T00:23:28;3.37;;;0.83;;
14141;SDS011;7151;52.246;4.820;2022-12-07T00:25:54;1.70;;;0.90;;
14141;SDS011;7151;52.246;4.820;2022-12-07T00:28:20;2.43;;;0.93;;
14141;SDS011;7151;52.246;4.820;2022-12-07T00:30:45;3.23;;;0.97;;
14141;SDS011;7151;52.246;4.820;2022-12-07T00:33:11;1.87;;;0.80;;
14141;SDS011;7151;52.246;4.820;2022-12-07T00:35:36;2.63;;;1.10;;
14141;SDS011;7151;52.246;4.820;2022-12-07T00:38:02;3.23;;;1.10;;
14141;SDS011;7151;52.246;4.820;2022-12-07T00:40:27;3.27;;;0.70;;
14141;SDS011;7151;52.246;4.820;2022-12-07T00:42:53;2.40;;;0.60;;
14141;SDS011;7151;52.246;4.820;2022-12-07T00:45:19;1.67;;;0.60;;
14141;SDS011;7151;52.246;4.820;2022-12-07T00:47:44;1.57;;;1.17;;
14141;SDS011;7151;52.246;4.820;2022-12-07T00:50:10;2.83;;;1.23;;
14141;SDS011;7151;52.246;4.820;2022-12-07T00:52:35;3.97;;;0.80;;
14141;SDS011;7151;52.246;4.820;2022-12-07T00:55:01;2.20;;;0.90;;
14141;SDS011;7151;52.246;4.820;2022-12-07T00:57:26;5.80;;;1.10;;
14141;SDS011;7151;52.246;4.820;2022-12-07T00:59:52;3.23;;;1.03;;
14141;SDS011;7151;52.246;4.820;2022-12-07T01:02:20;1.10;;;0.87;;
14141;SDS011;7151;52.246;4.820;2022-12-07T01:04:47;3.83;;;0.83;;
14141;SDS011;7151;52.246;4.820;2022-12-07T01:07:12;1.53;;;0.63;;
14141;SDS011;7151;52.246;4.820;2022-12-07T01:09:38;4.33;;;1.10;;
14141;SDS011;7151;52.246;4.820;2022-12-07T01:12:03;1.20;;;0.60;;
14141;SDS011;7151;52.246;4.820;2022-12-07T01:14:29;1.37;;;0.63;;
14141;SDS011;7151;52.246;4.820;2022-12-07T01:16:55;1.10;;;0.50;;
14141;SDS011;7151;52.246;4.820;2022-12-07T01:19:20;3.10;;;1.13;;
14141;SDS011;7151;52.246;4.820;2022-12-07T01:21:46;2.03;;;0.60;;
14141;SDS011;7151;52.246;4.820;2022-12-07T01:24:11;2.83;;;0.67;;
14141;SDS011;7151;52.246;4.820;2022-12-07T01:26:37;7.80;;;0.87;;
14141;SDS011;7151;52.246;4.820;2022-12-07T01:29:03;1.57;;;0.60;;
14141;SDS011;7151;52.246;4.820;2022-12-07T01:31:29;2.40;;;0.60;;
14141;SDS011;7151;52.246;4.820;2022-12-07T01:33:56;1.13;;;0.50;;
14141;SDS011;7151;52.246;4.820;2022-12-07T01:38:54;5.50;;;0.63;;
14141;SDS011;7151;52.246;4.820;2022-12-07T01:41:22;2.30;;;0.53;;
14141;SDS011;7151;52.246;4.820;2022-12-07T01:46:35;3.30;;;0.70;;
14141;SDS011;7151;52.246;4.820;2022-12-07T01:49:01;1.20;;;0.60;;
14141;SDS011;7151;52.246;4.820;2022-12-07T01:51:28;2.33;;;0.67;;
14141;SDS011;7151;52.246;4.820;2022-12-07T01:53:54;2.10;;;0.60;;
14141;SDS011;7151;52.246;4.820;2022-12-07T01:56:22;1.27;;;0.37;;
14141;SDS011;7151;52.246;4.820;2022-12-07T01:58:51;0.83;;;0.40;;
14141;SDS011;7151;52.246;4.820;2022-12-07T02:01:18;1.40;;;0.43;;
14141;SDS011;7151;52.246;4.820;2022-12-07T02:03:44;1.20;;;0.57;;
14141;SDS011;7151;52.246;4.820;2022-12-07T02:06:11;1.80;;;0.50;;
14141;SDS011;7151;52.246;4.820;2022-12-07T02:08:40;0.50;;;0.30;;
14141;SDS011;7151;52.246;4.820;2022-12-07T02:11:07;0.90;;;0.40;;
14141;SDS011;7151;52.246;4.820;2022-12-07T02:13:35;1.53;;;0.50;;
14141;SDS011;7151;52.246;4.820;2022-12-07T02:24:04;5.20;;;0.50;;
14141;SDS011;7151;52.246;4.820;2022-12-07T02:29:10;1.93;;;0.60;;
14141;SDS011;7151;52.246;4.820;2022-12-07T02:31:46;1.70;;;0.50;;
14141;SDS011;7151;52.246;4.820;2022-12-07T02:34:35;0.50;;;0.33;;
14141;SDS011;7151;52.246;4.820;2022-12-07T02:37:13;0.10;;;0.10;;
14141;SDS011;7151;52.246;4.820;2022-12-07T02:40:04;2.13;;;0.40;;
14141;SDS011;7151;52.246;4.820;2022-12-07T02:42:36;1.90;;;0.77;;
14141;SDS011;7151;52.246;4.820;2022-12-07T02:45:12;1.23;;;0.40;;
14141;SDS011;7151;52.246;4.820;2022-12-07T02:47:40;3.40;;;0.40;;
14141;SDS011;7151;52.246;4.820;2022-12-07T02:50:08;1.17;;;0.60;;
14141;SDS011;7151;52.246;4.820;2022-12-07T02:52:34;1.07;;;0.20;;
14141;SDS011;7151;52.246;4.820;2022-12-07T02:54:59;1.67;;;0.43;;
14141;SDS011;7151;52.246;4.820;2022-12-07T02:57:40;0.93;;;0.53;;
14141;SDS011;7151;52.246;4.820;2022-12-07T03:00:16;1.93;;;0.40;;
14141;SDS011;7151;52.246;4.820;2022-12-07T03:02:50;1.37;;;0.57;;
14141;SDS011;7151;52.246;4.820;2022-12-07T03:11:10;0.20;;;0.20;;
14141;SDS011;7151;52.246;4.820;2022-12-07T03:13:45;0.27;;;0.20;;
14141;SDS011;7151;52.246;4.820;2022-12-07T03:16:18;2.43;;;0.70;;
14141;SDS011;7151;52.246;4.820;2022-12-07T03:21:32;0.73;;;0.47;;
14141;SDS011;7151;52.246;4.820;2022-12-07T03:24:03;0.87;;;0.87;;
14141;SDS011;7151;52.246;4.820;2022-12-07T03:26:37;0.70;;;0.50;;
14141;SDS011;7151;52.246;4.820;2022-12-07T03:29:07;2.73;;;0.37;;
14141;SDS011;7151;52.246;4.820;2022-12-07T03:31:38;1.67;;;0.50;;
14141;SDS011;7151;52.246;4.820;2022-12-07T03:34:12;3.93;;;0.60;;
14141;SDS011;7151;52.246;4.820;2022-12-07T03:36:57;0.30;;;0.20;;
14141;SDS011;7151;52.246;4.820;2022-12-07T03:39:33;2.47;;;0.80;;
14141;SDS011;7151;52.246;4.820;2022-12-07T03:42:23;0.30;;;0.30;;
14141;SDS011;7151;52.246;4.820;2022-12-07T03:44:49;0.60;;;0.30;;
14141;SDS011;7151;52.246;4.820;2022-12-07T03:47:16;1.63;;;0.93;;
14141;SDS011;7151;52.246;4.820;2022-12-07T03:50:14;2.30;;;0.60;;
14141;SDS011;7151;52.246;4.820;2022-12-07T03:52:54;1.03;;;0.40;;
14141;SDS011;7151;52.246;4.820;2022-12-07T03:55:27;0.67;;;0.30;;
14141;SDS011;7151;52.246;4.820;2022-12-07T03:58:03;2.67;;;0.50;;
14141;SDS011;7151;52.246;4.820;2022-12-07T04:00:31;2.63;;;0.60;;
14141;SDS011;7151;52.246;4.820;2022-12-07T04:02:57;2.13;;;0.80;;
14141;SDS011;7151;52.246;4.820;2022-12-07T04:05:23;1.00;;;0.57;;
14141;SDS011;7151;52.246;4.820;2022-12-07T04:07:50;1.43;;;0.53;;
14141;SDS011;7151;52.246;4.820;2022-12-07T04:10:15;2.00;;;0.50;;
14141;SDS011;7151;52.246;4.820;2022-12-07T04:12:41;1.00;;;0.43;;
14141;SDS011;7151;52.246;4.820;2022-12-07T04:15:07;1.77;;;0.50;;
14141;SDS011;7151;52.246;4.820;2022-12-07T04:17:33;1.17;;;0.23;;
14141;SDS011;7151;52.246;4.820;2022-12-07T04:19:59;0.73;;;0.40;;
14141;SDS011;7151;52.246;4.820;2022-12-07T04:22:25;1.27;;;0.40;;
14141;SDS011;7151;52.246;4.820;2022-12-07T04:24:50;1.23;;;0.50;;
14141;SDS011;7151;52.246;4.820;2022-12-07T04:27:16;1.10;;;0.70;;
14141;SDS011;7151;52.246;4.820;2022-12-07T04:29:41;1.60;;;1.00;;
14141;SDS011;7151;52.246;4.820;2022-12-07T04:32:07;4.90;;;0.80;;
14141;SDS011;7151;52.246;4.820;2022-12-07T04:34:32;2.63;;;0.70;;
14141;SDS011;7151;52.246;4.820;2022-12-07T04:36:58;3.97;;;0.93;;
14141;SDS011;7151;52.246;4.820;2022-12-07T04:39:30;0.50;;;0.50;;
14141;SDS011;7151;52.246;4.820;2022-12-07T04:41:57;2.80;;;0.73;;
14141;SDS011;7151;52.246;4.820;2022-12-07T04:44:23;1.17;;;0.33;;
14141;SDS011;7151;52.246;4.820;2022-12-07T04:46:50;1.23;;;0.77;;
14141;SDS011;7151;52.246;4.820;2022-12-07T04:49:17;3.77;;;1.17;;
14141;SDS011;7151;52.246;4.820;2022-12-07T04:51:43;2.73;;;0.57;;
14141;SDS011;7151;52.246;4.820;2022-12-07T04:54:09;1.30;;;0.50;;
14141;SDS011;7151;52.246;4.820;2022-12-07T04:56:36;2.20;;;0.70;;
14141;SDS011;7151;52.246;4.820;2022-12-07T04:59:02;1.23;;;0.33;;
14141;SDS011;7151;52.246;4.820;2022-12-07T05:01:28;2.27;;;0.63;;
14141;SDS011;7151;52.246;4.820;2022-12-07T05:03:54;1.47;;;0.77;;
14141;SDS011;7151;52.246;4.820;2022-12-07T05:06:19;1.30;;;0.57;;
14141;SDS011;7151;52.246;4.820;2022-12-07T05:08:45;4.73;;;1.43;;
14141;SDS011;7151;52.246;4.820;2022-12-07T05:11:11;4.20;;;1.03;;
14141;SDS011;7151;52.246;4.820;2022-12-07T05:14:00;4.00;;;1.90;;
14141;SDS011;7151;52.246;4.820;2022-12-07T05:16:27;2.73;;;0.80;;
14141;SDS011;7151;52.246;4.820;2022-12-07T05:18:53;1.67;;;0.73;;
14141;SDS011;7151;52.246;4.820;2022-12-07T05:21:18;2.17;;;0.70;;
14141;SDS011;7151;52.246;4.820;2022-12-07T05:23:44;3.40;;;0.90;;
14141;SDS011;7151;52.246;4.820;2022-12-07T05:26:09;2.30;;;0.70;;
14141;SDS011;7151;52.246;4.820;2022-12-07T05:28:35;2.37;;;0.70;;
14141;SDS011;7151;52.246;4.820;2022-12-07T05:31:01;2.53;;;1.03;;
14141;SDS011;7151;52.246;4.820;2022-12-07T05:33:26;2.83;;;0.87;;
14141;SDS011;7151;52.246;4.820;2022-12-07T05:35:52;2.13;;;0.90;;
14141;SDS011;7151;52.246;4.820;2022-12-07T05:38:17;1.97;;;0.70;;
14141;SDS011;7151;52.246;4.820;2022-12-07T05:40:43;0.90;;;0.60;;
14141;SDS011;7151;52.246;4.820;2022-12-07T05:43:09;0.50;;;0.40;;
14141;SDS011;7151;52.246;4.820;2022-12-07T05:45:35;4.27;;;0.67;;
14141;SDS011;7151;52.246;4.820;2022-12-07T05:48:00;2.33;;;0.70;;
14141;SDS011;7151;52.246;4.820;2022-12-07T05:50:26;1.20;;;0.73;;
14141;SDS011;7151;52.246;4.820;2022-12-07T05:52:52;7.60;;;1.13;;
14141;SDS011;7151;52.246;4.820;2022-12-07T05:55:18;0.97;;;0.60;;
14141;SDS011;7151;52.246;4.820;2022-12-07T05:57:44;1.10;;;0.60;;
14141;SDS011;7151;52.246;4.820;2022-12-07T06:00:29;2.37;;;0.77;;
14141;SDS011;7151;52.246;4.820;2022-12-07T06:02:55;1.90;;;0.83;;
14141;SDS011;7151;52.246;4.820;2022-12-07T06:05:20;4.23;;;0.90;;
14141;SDS011;7151;52.246;4.820;2022-12-07T06:07:46;5.00;;;0.80;;
14141;SDS011;7151;52.246;4.820;2022-12-07T06:10:12;2.53;;;0.70;;
14141;SDS011;7151;52.246;4.820;2022-12-07T06:12:37;2.00;;;0.60;;
14141;SDS011;7151;52.246;4.820;2022-12-07T06:15:04;3.97;;;1.17;;
14141;SDS011;7151;52.246;4.820;2022-12-07T06:17:31;3.20;;;0.83;;
14141;SDS011;7151;52.246;4.820;2022-12-07T06:19:57;4.77;;;1.23;;
14141;SDS011;7151;52.246;4.820;2022-12-07T06:22:22;3.13;;;0.87;;
14141;SDS011;7151;52.246;4.820;2022-12-07T06:24:48;1.30;;;0.63;;
14141;SDS011;7151;52.246;4.820;2022-12-07T06:27:14;1.50;;;0.80;;
14141;SDS011;7151;52.246;4.820;2022-12-07T06:29:39;3.83;;;1.43;;
14141;SDS011;7151;52.246;4.820;2022-12-07T06:32:05;1.67;;;0.87;;
14141;SDS011;7151;52.246;4.820;2022-12-07T06:34:31;1.97;;;0.93;;
14141;SDS011;7151;52.246;4.820;2022-12-07T06:36:57;0.53;;;0.40;;
14141;SDS011;7151;52.246;4.820;2022-12-07T06:39:23;1.97;;;0.60;;
14141;SDS011;7151;52.246;4.820;2022-12-07T06:41:50;1.87;;;0.53;;
14141;SDS011;7151;52.246;4.820;2022-12-07T06:44:19;1.83;;;0.67;;
14141;SDS011;7151;52.246;4.820;2022-12-07T06:46:45;1.70;;;0.87;;
14141;SDS011;7151;52.246;4.820;2022-12-07T06:49:11;0.67;;;0.40;;
14141;SDS011;7151;52.246;4.820;2022-12-07T06:51:37;1.20;;;0.90;;
14141;SDS011;7151;52.246;4.820;2022-12-07T06:54:06;2.70;;;1.17;;
14141;SDS011;7151;52.246;4.820;2022-12-07T06:56:35;1.03;;;0.57;;
14141;SDS011;7151;52.246;4.820;2022-12-07T06:59:01;1.13;;;0.70;;
14141;SDS011;7151;52.246;4.820;2022-12-07T07:01:28;4.00;;;1.10;;
14141;SDS011;7151;52.246;4.820;2022-12-07T07:03:54;1.90;;;1.00;;
14141;SDS011;7151;52.246;4.820;2022-12-07T07:06:19;3.37;;;1.00;;
14141;SDS011;7151;52.246;4.820;2022-12-07T07:08:45;2.07;;;1.20;;
14141;SDS011;7151;52.246;4.820;2022-12-07T07:11:11;2.67;;;1.30;;
14141;SDS011;7151;52.246;4.820;2022-12-07T07:13:36;3.97;;;1.10;;
14141;SDS011;7151;52.246;4.820;2022-12-07T07:16:02;3.73;;;1.10;;
14141;SDS011;7151;52.246;4.820;2022-12-07T07:18:28;2.63;;;1.10;;
14141;SDS011;7151;52.246;4.820;2022-12-07T07:20:54;1.03;;;0.83;;
14141;SDS011;7151;52.246;4.820;2022-12-07T07:23:20;2.33;;;1.13;;
14141;SDS011;7151;52.246;4.820;2022-12-07T07:25:46;1.93;;;1.10;;
14141;SDS011;7151;52.246;4.820;2022-12-07T07:28:13;3.47;;;1.00;;
14141;SDS011;7151;52.246;4.820;2022-12-07T07:30:39;3.30;;;1.13;;
14141;SDS011;7151;52.246;4.820;2022-12-07T07:33:05;3.23;;;1.17;;
14141;SDS011;7151;52.246;4.820;2022-12-07T07:35:32;0.83;;;0.83;;
14141;SDS011;7151;52.246;4.820;2022-12-07T07:37:59;0.80;;;0.73;;
14141;SDS011;7151;52.246;4.820;2022-12-07T07:40:25;2.27;;;1.00;;
14141;SDS011;7151;52.246;4.820;2022-12-07T07:42:51;1.80;;;0.93;;
14141;SDS011;7151;52.246;4.820;2022-12-07T07:45:21;1.57;;;0.60;;
14141;SDS011;7151;52.246;4.820;2022-12-07T07:47:48;1.57;;;1.30;;
14141;SDS011;7151;52.246;4.820;2022-12-07T07:50:14;1.50;;;0.90;;
14141;SDS011;7151;52.246;4.820;2022-12-07T07:52:41;1.03;;;0.93;;
14141;SDS011;7151;52.246;4.820;2022-12-07T07:55:07;4.43;;;2.10;;
14141;SDS011;7151;52.246;4.820;2022-12-07T07:57:33;3.20;;;1.70;;
14141;SDS011;7151;52.246;4.820;2022-12-07T07:59:59;3.30;;;1.70;;
14141;SDS011;7151;52.246;4.820;2022-12-07T08:02:25;2.17;;;1.23;;
14141;SDS011;7151;52.246;4.820;2022-12-07T08:04:50;3.83;;;1.30;;
14141;SDS011;7151;52.246;4.820;2022-12-07T08:07:16;4.00;;;1.40;;
14141;SDS011;7151;52.246;4.820;2022-12-07T08:09:41;1.77;;;1.30;;
14141;SDS011;7151;52.246;4.820;2022-12-07T08:12:07;2.63;;;1.00;;
14141;SDS011;7151;52.246;4.820;2022-12-07T08:14:33;2.00;;;1.70;;
14141;SDS011;7151;52.246;4.820;2022-12-07T08:16:59;3.77;;;1.43;;
14141;SDS011;7151;52.246;4.820;2022-12-07T08:19:25;3.27;;;1.57;;
14141;SDS011;7151;52.246;4.820;2022-12-07T08:21:50;3.80;;;1.40;;
14141;SDS011;7151;52.246;4.820;2022-12-07T08:24:16;5.77;;;1.80;;
14141;SDS011;7151;52.246;4.820;2022-12-07T08:26:42;3.30;;;1.17;;
14141;SDS011;7151;52.246;4.820;2022-12-07T08:29:08;2.73;;;1.50;;
14141;SDS011;7151;52.246;4.820;2022-12-07T08:31:33;2.40;;;1.33;;
14141;SDS011;7151;52.246;4.820;2022-12-07T08:33:59;4.60;;;1.43;;
14141;SDS011;7151;52.246;4.820;2022-12-07T08:36:25;3.97;;;1.30;;
14141;SDS011;7151;52.246;4.820;2022-12-07T08:38:50;3.07;;;1.37;;
14141;SDS011;7151;52.246;4.820;2022-12-07T08:41:16;1.57;;;1.10;;
14141;SDS011;7151;52.246;4.820;2022-12-07T08:43:42;1.57;;;1.47;;
14141;SDS011;7151;52.246;4.820;2022-12-07T08:46:28;4.90;;;1.50;;
14141;SDS011;7151;52.246;4.820;2022-12-07T08:49:13;6.60;;;1.60;;
14141;SDS011;7151;52.246;4.820;2022-12-07T08:51:48;4.13;;;1.70;;
14141;SDS011;7151;52.246;4.820;2022-12-07T08:54:14;2.23;;;1.47;;
14141;SDS011;7151;52.246;4.820;2022-12-07T08:56:42;3.53;;;1.77;;
14141;SDS011;7151;52.246;4.820;2022-12-07T08:59:09;2.97;;;1.57;;
14141;SDS011;7151;52.246;4.820;2022-12-07T09:01:35;2.73;;;1.10;;
14141;SDS011;7151;52.246;4.820;2022-12-07T09:04:01;2.03;;;1.47;;
14141;SDS011;7151;52.246;4.820;2022-12-07T09:06:26;5.27;;;1.53;;
14141;SDS011;7151;52.246;4.820;2022-12-07T09:08:53;2.43;;;1.33;;
14141;SDS011;7151;52.246;4.820;2022-12-07T09:11:22;2.93;;;1.67;;
14141;SDS011;7151;52.246;4.820;2022-12-07T09:13:48;3.63;;;1.30;;
14141;SDS011;7151;52.246;4.820;2022-12-07T09:16:14;2.90;;;1.10;;
14141;SDS011;7151;52.246;4.820;2022-12-07T09:18:39;2.80;;;1.37;;
14141;SDS011;7151;52.246;4.820;2022-12-07T09:21:05;6.00;;;1.83;;
14141;SDS011;7151;52.246;4.820;2022-12-07T09:23:30;6.50;;;2.93;;
14141;SDS011;7151;52.246;4.820;2022-12-07T09:26:03;3.87;;;2.90;;
14141;SDS011;7151;52.246;4.820;2022-12-07T09:28:32;3.23;;;2.33;;
14141;SDS011;7151;52.246;4.820;2022-12-07T09:30:58;3.97;;;2.23;;
14141;SDS011;7151;52.246;4.820;2022-12-07T09:33:23;6.57;;;2.63;;
14141;SDS011;7151;52.246;4.820;2022-12-07T09:35:49;7.70;;;2.43;;
14141;SDS011;7151;52.246;4.820;2022-12-07T09:38:16;4.93;;;2.70;;
14141;SDS011;7151;52.246;4.820;2022-12-07T09:40:44;4.80;;;1.90;;
14141;SDS011;7151;52.246;4.820;2022-12-07T09:43:13;4.77;;;1.67;;
14141;SDS011;7151;52.246;4.820;2022-12-07T09:45:40;4.07;;;1.90;;
14141;SDS011;7151;52.246;4.820;2022-12-07T09:48:09;5.60;;;2.30;;
14141;SDS011;7151;52.246;4.820;2022-12-07T09:50:44;6.23;;;2.83;;
14141;SDS011;7151;52.246;4.820;2022-12-07T09:53:24;3.07;;;1.50;;
14141;SDS011;7151;52.246;4.820;2022-12-07T09:55:53;1.73;;;1.30;;
14141;SDS011;7151;52.246;4.820;2022-12-07T09:58:20;2.77;;;1.30;;
14141;SDS011;7151;52.246;4.820;2022-12-07T10:00:50;2.77;;;1.10;;
14141;SDS011;7151;52.246;4.820;2022-12-07T10:03:38;7.83;;;1.30;;
14141;SDS011;7151;52.246;4.820;2022-12-07T10:06:07;7.53;;;1.40;;
14141;SDS011;7151;52.246;4.820;2022-12-07T10:08:35;1.97;;;1.00;;
14141;SDS011;7151;52.246;4.820;2022-12-07T10:11:02;2.37;;;0.93;;
14141;SDS011;7151;52.246;4.820;2022-12-07T10:13:38;3.27;;;1.20;;
14141;SDS011;7151;52.246;4.820;2022-12-07T10:16:25;3.97;;;1.20;;
14141;SDS011;7151;52.246;4.820;2022-12-07T10:19:17;3.33;;;0.90;;
14141;SDS011;7151;52.246;4.820;2022-12-07T10:22:12;5.10;;;1.33;;
14141;SDS011;7151;52.246;4.820;2022-12-07T10:24:39;3.50;;;1.13;;
14141;SDS011;7151;52.246;4.820;2022-12-07T10:27:26;3.33;;;1.20;;
14141;SDS011;7151;52.246;4.820;2022-12-07T10:29:55;3.77;;;1.30;;
14141;SDS011;7151;52.246;4.820;2022-12-07T10:37:50;2.87;;;1.00;;
14141;SDS011;7151;52.246;4.820;2022-12-07T10:40:30;1.23;;;0.70;;
14141;SDS011;7151;52.246;4.820;2022-12-07T10:43:15;2.57;;;1.47;;
14141;SDS011;7151;52.246;4.820;2022-12-07T10:48:50;2.10;;;1.00;;
14141;SDS011;7151;52.246;4.820;2022-12-07T10:54:16;4.47;;;0.97;;
14141;SDS011;7151;52.246;4.820;2022-12-07T11:07:38;2.03;;;0.80;;
14141;SDS011;7151;52.246;4.820;2022-12-07T11:12:43;2.47;;;1.10;;
14141;SDS011;7151;52.246;4.820;2022-12-07T11:18:22;3.03;;;0.97;;
14141;SDS011;7151;52.246;4.820;2022-12-07T11:24:06;2.30;;;0.77;;
14141;SDS011;7151;52.246;4.820;2022-12-07T11:34:59;2.47;;;0.80;;
14141;SDS011;7151;52.246;4.820;2022-12-07T11:37:49;3.87;;;0.87;;
14141;SDS011;7151;52.246;4.820;2022-12-07T11:42:58;1.10;;;0.67;;
14141;SDS011;7151;52.246;4.820;2022-12-07T11:45:30;1.97;;;0.60;;
14141;SDS011;7151;52.246;4.820;2022-12-07T11:48:00;0.67;;;0.50;;
14141;SDS011;7151;52.246;4.820;2022-12-07T11:53:33;2.67;;;1.20;;
14141;SDS011;7151;52.246;4.820;2022-12-07T11:56:07;1.97;;;0.80;;
14141;SDS011;7151;52.246;4.820;2022-12-07T11:58:51;2.70;;;1.10;;
14141;SDS011;7151;52.246;4.820;2022-12-07T12:06:38;2.70;;;0.97;;
14141;SDS011;7151;52.246;4.820;2022-12-07T12:17:42;2.30;;;0.87;;
14141;SDS011;7151;52.246;4.820;2022-12-07T12:20:19;1.80;;;0.80;;
14141;SDS011;7151;52.246;4.820;2022-12-07T12:25:36;1.00;;;0.50;;
14141;SDS011;7151;52.246;4.820;2022-12-07T12:31:13;2.00;;;0.53;;
14141;SDS011;7151;52.246;4.820;2022-12-07T12:33:46;1.03;;;0.50;;
14141;SDS011;7151;52.246;4.820;2022-12-07T12:41:59;1.07;;;0.40;;
14141;SDS011;7151;52.246;4.820;2022-12-07T12:46:58;0.87;;;0.33;;
14141;SDS011;7151;52.246;4.820;2022-12-07T12:51:59;0.63;;;0.43;;
14141;SDS011;7151;52.246;4.820;2022-12-07T12:54:28;2.10;;;0.60;;
14141;SDS011;7151;52.246;4.820;2022-12-07T12:57:18;0.67;;;0.40;;
14141;SDS011;7151;52.246;4.820;2022-12-07T13:13:02;5.27;;;0.60;;
14141;SDS011;7151;52.246;4.820;2022-12-07T13:20:53;1.73;;;0.37;;
14141;SDS011;7151;52.246;4.820;2022-12-07T13:23:25;0.43;;;0.40;;
14141;SDS011;7151;52.246;4.820;2022-12-07T13:28:48;3.53;;;0.80;;
14141;SDS011;7151;52.246;4.820;2022-12-07T13:34:05;0.90;;;0.30;;
14141;SDS011;7151;52.246;4.820;2022-12-07T13:37:14;1.03;;;0.30;;
14141;SDS011;7151;52.246;4.820;2022-12-07T13:39:52;1.47;;;0.80;;
14141;SDS011;7151;52.246;4.820;2022-12-07T13:42:27;2.50;;;0.80;;
14141;SDS011;7151;52.246;4.820;2022-12-07T13:44:54;0.83;;;0.50;;
14141;SDS011;7151;52.246;4.820;2022-12-07T13:50:23;1.63;;;1.23;;
14141;SDS011;7151;52.246;4.820;2022-12-07T13:52:50;2.80;;;0.60;;
14141;SDS011;7151;52.246;4.820;2022-12-07T13:55:20;2.67;;;0.60;;
14141;SDS011;7151;52.246;4.820;2022-12-07T13:57:51;3.33;;;0.50;;
14141;SDS011;7151;52.246;4.820;2022-12-07T14:00:25;0.80;;;0.60;;
14141;SDS011;7151;52.246;4.820;2022-12-07T14:02:57;4.37;;;0.90;;
14141;SDS011;7151;52.246;4.820;2022-12-07T14:05:27;0.77;;;0.70;;
14141;SDS011;7151;52.246;4.820;2022-12-07T14:07:58;5.13;;;0.93;;
14141;SDS011;7151;52.246;4.820;2022-12-07T14:10:30;1.90;;;0.73;;
14141;SDS011;7151;52.246;4.820;2022-12-07T14:12:59;1.07;;;0.50;;
14141;SDS011;7151;52.246;4.820;2022-12-07T14:15:32;2.23;;;0.60;;
14141;SDS011;7151;52.246;4.820;2022-12-07T14:18:00;2.10;;;0.70;;
14141;SDS011;7151;52.246;4.820;2022-12-07T14:20:39;2.97;;;0.77;;
14141;SDS011;7151;52.246;4.820;2022-12-07T14:23:19;1.80;;;0.40;;
14141;SDS011;7151;52.246;4.820;2022-12-07T14:25:51;3.23;;;0.60;;
14141;SDS011;7151;52.246;4.820;2022-12-07T14:28:27;1.80;;;0.50;;
14141;SDS011;7151;52.246;4.820;2022-12-07T14:30:55;1.03;;;0.60;;
14141;SDS011;7151;52.246;4.820;2022-12-07T14:33:21;1.53;;;0.57;;
14141;SDS011;7151;52.246;4.820;2022-12-07T14:35:48;2.17;;;0.60;;
14141;SDS011;7151;52.246;4.820;2022-12-07T14:38:14;3.50;;;0.87;;
14141;SDS011;7151;52.246;4.820;2022-12-07T14:40:39;3.27;;;1.00;;
14141;SDS011;7151;52.246;4.820;2022-12-07T14:43:08;3.53;;;0.83;;
14141;SDS011;7151;52.246;4.820;2022-12-07T14:45:36;1.53;;;0.80;;
14141;SDS011;7151;52.246;4.820;2022-12-07T14:48:02;3.00;;;0.67;;
14141;SDS011;7151;52.246;4.820;2022-12-07T14:50:28;1.60;;;0.80;;
14141;SDS011;7151;52.246;4.820;2022-12-07T14:52:59;1.47;;;0.40;;
14141;SDS011;7151;52.246;4.820;2022-12-07T14:55:29;3.57;;;0.50;;
14141;SDS011;7151;52.246;4.820;2022-12-07T14:57:56;1.27;;;0.50;;
14141;SDS011;7151;52.246;4.820;2022-12-07T15:00:23;2.97;;;0.63;;
14141;SDS011;7151;52.246;4.820;2022-12-07T15:02:50;2.43;;;0.70;;
14141;SDS011;7151;52.246;4.820;2022-12-07T15:05:16;2.20;;;0.77;;
14141;SDS011;7151;52.246;4.820;2022-12-07T15:07:44;2.47;;;0.90;;
14141;SDS011;7151;52.246;4.820;2022-12-07T15:10:27;1.90;;;0.67;;
14141;SDS011;7151;52.246;4.820;2022-12-07T15:12:57;1.53;;;0.70;;
14141;SDS011;7151;52.246;4.820;2022-12-07T15:15:46;4.17;;;1.00;;
14141;SDS011;7151;52.246;4.820;2022-12-07T15:18:12;2.50;;;0.63;;
14141;SDS011;7151;52.246;4.820;2022-12-07T15:20:38;2.13;;;0.90;;
14141;SDS011;7151;52.246;4.820;2022-12-07T15:23:04;1.13;;;0.80;;
14141;SDS011;7151;52.246;4.820;2022-12-07T15:25:30;2.53;;;0.93;;
14141;SDS011;7151;52.246;4.820;2022-12-07T15:27:56;2.17;;;0.67;;
14141;SDS011;7151;52.246;4.820;2022-12-07T15:30:21;1.90;;;0.97;;
14141;SDS011;7151;52.246;4.820;2022-12-07T15:32:50;1.13;;;0.70;;
14141;SDS011;7151;52.246;4.820;2022-12-07T15:35:17;1.07;;;0.93;;
14141;SDS011;7151;52.246;4.820;2022-12-07T15:37:42;1.63;;;0.50;;
14141;SDS011;7151;52.246;4.820;2022-12-07T15:40:08;0.90;;;0.60;;
14141;SDS011;7151;52.246;4.820;2022-12-07T15:42:35;3.17;;;0.57;;
14141;SDS011;7151;52.246;4.820;2022-12-07T15:45:01;3.47;;;0.67;;
14141;SDS011;7151;52.246;4.820;2022-12-07T15:47:31;2.83;;;0.80;;
14141;SDS011;7151;52.246;4.820;2022-12-07T15:49:58;3.53;;;1.03;;
14141;SDS011;7151;52.246;4.820;2022-12-07T15:52:24;1.00;;;0.60;;
14141;SDS011;7151;52.246;4.820;2022-12-07T15:54:50;0.80;;;0.60;;
14141;SDS011;7151;52.246;4.820;2022-12-07T15:57:15;0.63;;;0.40;;
14141;SDS011;7151;52.246;4.820;2022-12-07T15:59:41;1.90;;;0.30;;
14141;SDS011;7151;52.246;4.820;2022-12-07T16:02:07;1.13;;;0.60;;
14141;SDS011;7151;52.246;4.820;2022-12-07T16:04:35;1.37;;;0.77;;
14141;SDS011;7151;52.246;4.820;2022-12-07T16:07:01;0.83;;;0.70;;
14141;SDS011;7151;52.246;4.820;2022-12-07T16:09:26;0.90;;;0.50;;
14141;SDS011;7151;52.246;4.820;2022-12-07T16:11:52;1.00;;;0.80;;
14141;SDS011;7151;52.246;4.820;2022-12-07T16:14:18;0.87;;;0.63;;
14141;SDS011;7151;52.246;4.820;2022-12-07T16:16:43;0.50;;;0.50;;
14141;SDS011;7151;52.246;4.820;2022-12-07T16:19:09;0.67;;;0.67;;
14141;SDS011;7151;52.246;4.820;2022-12-07T16:21:36;2.07;;;0.70;;
14141;SDS011;7151;52.246;4.820;2022-12-07T16:24:02;1.07;;;0.87;;
14141;SDS011;7151;52.246;4.820;2022-12-07T16:26:28;1.93;;;0.50;;
14141;SDS011;7151;52.246;4.820;2022-12-07T16:28:54;2.00;;;1.00;;
14141;SDS011;7151;52.246;4.820;2022-12-07T16:31:23;3.70;;;0.90;;
14141;SDS011;7151;52.246;4.820;2022-12-07T16:33:52;3.00;;;1.10;;
14141;SDS011;7151;52.246;4.820;2022-12-07T16:36:19;0.63;;;0.63;;
14141;SDS011;7151;52.246;4.820;2022-12-07T16:38:46;1.47;;;0.80;;
14141;SDS011;7151;52.246;4.820;2022-12-07T16:41:13;1.27;;;0.87;;
14141;SDS011;7151;52.246;4.820;2022-12-07T16:43:39;3.23;;;0.90;;
14141;SDS011;7151;52.246;4.820;2022-12-07T16:46:05;2.73;;;0.70;;
14141;SDS011;7151;52.246;4.820;2022-12-07T16:48:31;1.40;;;0.90;;
14141;SDS011;7151;52.246;4.820;2022-12-07T16:51:02;1.50;;;0.73;;
14141;SDS011;7151;52.246;4.820;2022-12-07T16:53:29;1.27;;;0.60;;
14141;SDS011;7151;52.246;4.820;2022-12-07T16:55:55;1.97;;;1.07;;
14141;SDS011;7151;52.246;4.820;2022-12-07T16:58:20;3.50;;;0.77;;
14141;SDS011;7151;52.246;4.820;2022-12-07T17:00:46;1.50;;;0.97;;
14141;SDS011;7151;52.246;4.820;2022-12-07T17:03:11;1.93;;;0.97;;
14141;SDS011;7151;52.246;4.820;2022-12-07T17:05:41;2.00;;;1.07;;
14141;SDS011;7151;52.246;4.820;2022-12-07T17:08:08;1.00;;;0.90;;
14141;SDS011;7151;52.246;4.820;2022-12-07T17:10:35;3.97;;;1.00;;
14141;SDS011;7151;52.246;4.820;2022-12-07T17:13:03;1.43;;;0.97;;
14141;SDS011;7151;52.246;4.820;2022-12-07T17:18:23;1.40;;;0.80;;
14141;SDS011;7151;52.246;4.820;2022-12-07T17:20:48;2.77;;;0.93;;
14141;SDS011;7151;52.246;4.820;2022-12-07T17:23:14;3.73;;;1.07;;